sensor_id;sensor_type;location;lat;lon;timestamp;temperature;humidity
22666;DHT22;11499;49.486;11.104;2022-09-30T00:00:42;6.20;99.90
22666;DHT22;11499;49.486;11.104;2022-09-30T00:03:08;6.20;99.90
22666;DHT22;11499;49.486;11.104;2022-09-30T00:05:33;6.10;99.90
22666;DHT22;11499;49.486;11.104;2022-09-30T00:07:59;6.10;99.90
22666;DHT22;11499;49.486;11.104;2022-09-30T00:10:24;6.10;99.90
22666;DHT22;11499;49.486;11.104;2022-09-30T00:12:51;6.00;99.90
22666;DHT22;11499;49.486;11.104;2022-09-30T00:15:16;5.90;99.90
22666;DHT22;11499;49.486;11.104;2022-09-30T00:17:42;5.80;99.90
22666;DHT22;11499;49.486;11.104;2022-09-30T00:20:09;5.80;99.90
22666;DHT22;11499;49.486;11.104;2022-09-30T00:25:14;5.70;99.90
22666;DHT22;11499;49.486;11.104;2022-09-30T00:27:40;5.70;99.90
22666;DHT22;11499;49.486;11.104;2022-09-30T00:30:06;5.70;99.90
22666;DHT22;11499;49.486;11.104;2022-09-30T00:32:31;5.60;99.90
22666;DHT22;11499;49.486;11.104;2022-09-30T00:34:57;5.60;99.90
22666;DHT22;11499;49.486;11.104;2022-09-30T00:37:22;5.60;99.90
22666;DHT22;11499;49.486;11.104;2022-09-30T00:39:48;5.50;99.90
22666;DHT22;11499;49.486;11.104;2022-09-30T00:42:15;5.40;99.90
22666;DHT22;11499;49.486;11.104;2022-09-30T00:55:30;5.20;99.90
22666;DHT22;11499;49.486;11.104;2022-09-30T00:57:58;5.10;99.90
22666;DHT22;11499;49.486;11.104;2022-09-30T01:00:25;5.20;99.90
22666;DHT22;11499;49.486;11.104;2022-09-30T01:02:51;5.20;99.90
22666;DHT22;11499;49.486;11.104;2022-09-30T01:05:16;5.10;99.90
22666;DHT22;11499;49.486;11.104;2022-09-30T01:07:42;5.10;99.90
22666;DHT22;11499;49.486;11.104;2022-09-30T01:10:08;5.00;99.90
22666;DHT22;11499;49.486;11.104;2022-09-30T01:12:34;5.00;99.90
22666;DHT22;11499;49.486;11.104;2022-09-30T01:15:00;4.90;99.90
22666;DHT22;11499;49.486;11.104;2022-09-30T01:20:20;4.90;99.90
22666;DHT22;11499;49.486;11.104;2022-09-30T01:26:07;4.80;99.90
22666;DHT22;11499;49.486;11.104;2022-09-30T01:34:52;4.60;99.90
22666;DHT22;11499;49.486;11.104;2022-09-30T01:37:51;4.50;99.90
22666;DHT22;11499;49.486;11.104;2022-09-30T01:42:56;4.50;99.90
22666;DHT22;11499;49.486;11.104;2022-09-30T01:48:36;4.60;99.90
22666;DHT22;11499;49.486;11.104;2022-09-30T01:56:41;4.80;99.90
22666;DHT22;11499;49.486;11.104;2022-09-30T01:59:29;4.80;99.90
22666;DHT22;11499;49.486;11.104;2022-09-30T02:02:03;4.90;99.90
22666;DHT22;11499;49.486;11.104;2022-09-30T02:04:35;4.90;99.90
22666;DHT22;11499;49.486;11.104;2022-09-30T02:07:06;5.00;99.90
22666;DHT22;11499;49.486;11.104;2022-09-30T02:09:50;5.00;99.90
22666;DHT22;11499;49.486;11.104;2022-09-30T02:15:26;5.20;99.90
22666;DHT22;11499;49.486;11.104;2022-09-30T02:17:55;5.20;99.90
22666;DHT22;11499;49.486;11.104;2022-09-30T02:20:28;5.20;99.90
22666;DHT22;11499;49.486;11.104;2022-09-30T02:23:04;5.20;99.90
22666;DHT22;11499;49.486;11.104;2022-09-30T02:25:44;5.20;99.90
22666;DHT22;11499;49.486;11.104;2022-09-30T02:28:17;5.10;99.90
22666;DHT22;11499;49.486;11.104;2022-09-30T02:30:49;5.10;99.90
22666;DHT22;11499;49.486;11.104;2022-09-30T02:33:19;5.10;99.90
22666;DHT22;11499;49.486;11.104;2022-09-30T02:35:51;5.10;99.90
22666;DHT22;11499;49.486;11.104;2022-09-30T02:38:21;5.10;99.90
22666;DHT22;11499;49.486;11.104;2022-09-30T02:43:04;5.10;99.90
22666;DHT22;11499;49.486;11.104;2022-09-30T02:46:22;5.10;99.90
22666;DHT22;11499;49.486;11.104;2022-09-30T02:48:35;5.00;99.90
22666;DHT22;11499;49.486;11.104;2022-09-30T02:51:07;5.00;99.90
22666;DHT22;11499;49.486;11.104;2022-09-30T02:56:24;5.00;99.90
22666;DHT22;11499;49.486;11.104;2022-09-30T02:58:51;4.90;99.90
22666;DHT22;11499;49.486;11.104;2022-09-30T03:01:20;4.90;99.90
22666;DHT22;11499;49.486;11.104;2022-09-30T03:03:53;4.80;99.90
22666;DHT22;11499;49.486;11.104;2022-09-30T03:06:20;4.80;99.90
22666;DHT22;11499;49.486;11.104;2022-09-30T03:10:56;4.70;99.90
22666;DHT22;11499;49.486;11.104;2022-09-30T03:16:28;4.60;99.90
22666;DHT22;11499;49.486;11.104;2022-09-30T03:19:15;4.50;99.90
22666;DHT22;11499;49.486;11.104;2022-09-30T03:22:15;4.50;99.90
22666;DHT22;11499;49.486;11.104;2022-09-30T03:24:52;4.50;99.90
22666;DHT22;11499;49.486;11.104;2022-09-30T03:27:47;4.60;99.90
22666;DHT22;11499;49.486;11.104;2022-09-30T03:30:18;4.60;99.90
22666;DHT22;11499;49.486;11.104;2022-09-30T03:33:00;4.70;99.90
22666;DHT22;11499;49.486;11.104;2022-09-30T03:38:28;4.80;99.90
22666;DHT22;11499;49.486;11.104;2022-09-30T03:41:02;4.80;99.90
22666;DHT22;11499;49.486;11.104;2022-09-30T03:43:39;4.70;99.90
22666;DHT22;11499;49.486;11.104;2022-09-30T03:48:43;4.60;99.90
22666;DHT22;11499;49.486;11.104;2022-09-30T03:51:10;4.60;99.90
22666;DHT22;11499;49.486;11.104;2022-09-30T03:53:39;4.60;99.90
22666;DHT22;11499;49.486;11.104;2022-09-30T03:56:05;4.60;99.90
22666;DHT22;11499;49.486;11.104;2022-09-30T03:58:30;4.60;99.90
22666;DHT22;11499;49.486;11.104;2022-09-30T04:00:56;4.50;99.90
22666;DHT22;11499;49.486;11.104;2022-09-30T04:05:49;4.40;99.90
22666;DHT22;11499;49.486;11.104;2022-09-30T04:08:15;4.40;99.90
22666;DHT22;11499;49.486;11.104;2022-09-30T04:10:42;4.50;99.90
22666;DHT22;11499;49.486;11.104;2022-09-30T04:13:08;4.50;99.90
22666;DHT22;11499;49.486;11.104;2022-09-30T04:15:35;4.60;99.90
22666;DHT22;11499;49.486;11.104;2022-09-30T04:18:01;4.70;99.90
22666;DHT22;11499;49.486;11.104;2022-09-30T04:20:28;4.70;99.90
22666;DHT22;11499;49.486;11.104;2022-09-30T04:22:57;4.70;99.90
22666;DHT22;11499;49.486;11.104;2022-09-30T04:25:23;4.70;99.90
22666;DHT22;11499;49.486;11.104;2022-09-30T04:27:49;4.70;99.90
22666;DHT22;11499;49.486;11.104;2022-09-30T04:33:23;4.80;99.90
22666;DHT22;11499;49.486;11.104;2022-09-30T04:35:55;4.80;99.90
22666;DHT22;11499;49.486;11.104;2022-09-30T04:38:21;4.70;99.90
22666;DHT22;11499;49.486;11.104;2022-09-30T04:40:47;4.60;99.90
22666;DHT22;11499;49.486;11.104;2022-09-30T04:43:14;4.50;99.90
22666;DHT22;11499;49.486;11.104;2022-09-30T04:45:42;4.40;99.90
22666;DHT22;11499;49.486;11.104;2022-09-30T04:48:09;4.30;99.90
22666;DHT22;11499;49.486;11.104;2022-09-30T04:50:34;4.30;99.90
22666;DHT22;11499;49.486;11.104;2022-09-30T04:53:00;4.30;99.90
22666;DHT22;11499;49.486;11.104;2022-09-30T04:55:26;4.40;99.90
22666;DHT22;11499;49.486;11.104;2022-09-30T05:00:30;4.40;99.90
22666;DHT22;11499;49.486;11.104;2022-09-30T05:02:55;4.60;99.90
22666;DHT22;11499;49.486;11.104;2022-09-30T05:05:22;4.50;99.90
22666;DHT22;11499;49.486;11.104;2022-09-30T05:07:47;4.40;99.90
22666;DHT22;11499;49.486;11.104;2022-09-30T05:10:13;4.40;99.90
22666;DHT22;11499;49.486;11.104;2022-09-30T05:12:39;4.40;99.90
22666;DHT22;11499;49.486;11.104;2022-09-30T05:15:08;4.30;99.90
22666;DHT22;11499;49.486;11.104;2022-09-30T05:17:34;4.40;99.90
22666;DHT22;11499;49.486;11.104;2022-09-30T05:20:00;4.40;99.90
22666;DHT22;11499;49.486;11.104;2022-09-30T05:22:26;4.40;99.90
22666;DHT22;11499;49.486;11.104;2022-09-30T05:27:31;4.40;99.90
22666;DHT22;11499;49.486;11.104;2022-09-30T05:29:56;4.40;99.90
22666;DHT22;11499;49.486;11.104;2022-09-30T05:32:22;4.50;99.90
22666;DHT22;11499;49.486;11.104;2022-09-30T05:34:49;4.60;99.90
22666;DHT22;11499;49.486;11.104;2022-09-30T05:37:14;4.60;99.90
22666;DHT22;11499;49.486;11.104;2022-09-30T05:39:40;4.60;99.90
22666;DHT22;11499;49.486;11.104;2022-09-30T05:42:06;4.70;99.90
22666;DHT22;11499;49.486;11.104;2022-09-30T05:44:32;4.80;99.90
22666;DHT22;11499;49.486;11.104;2022-09-30T05:46:57;4.80;99.90
22666;DHT22;11499;49.486;11.104;2022-09-30T05:49:24;4.90;99.90
22666;DHT22;11499;49.486;11.104;2022-09-30T05:54:32;5.10;99.90
22666;DHT22;11499;49.486;11.104;2022-09-30T05:56:57;5.20;99.90
22666;DHT22;11499;49.486;11.104;2022-09-30T05:59:23;5.40;99.90
22666;DHT22;11499;49.486;11.104;2022-09-30T06:01:49;5.50;99.90
22666;DHT22;11499;49.486;11.104;2022-09-30T06:04:14;5.70;99.90
22666;DHT22;11499;49.486;11.104;2022-09-30T06:06:40;5.70;99.90
22666;DHT22;11499;49.486;11.104;2022-09-30T06:09:06;5.80;99.90
22666;DHT22;11499;49.486;11.104;2022-09-30T06:11:31;5.70;99.90
22666;DHT22;11499;49.486;11.104;2022-09-30T06:13:57;5.60;99.90
22666;DHT22;11499;49.486;11.104;2022-09-30T06:16:22;5.50;99.90
22666;DHT22;11499;49.486;11.104;2022-09-30T06:21:49;5.50;99.90
22666;DHT22;11499;49.486;11.104;2022-09-30T06:24:16;5.50;99.90
22666;DHT22;11499;49.486;11.104;2022-09-30T06:26:41;5.60;99.90
22666;DHT22;11499;49.486;11.104;2022-09-30T06:29:07;5.80;99.90
22666;DHT22;11499;49.486;11.104;2022-09-30T06:31:33;6.10;99.90
22666;DHT22;11499;49.486;11.104;2022-09-30T06:33:58;6.00;99.90
22666;DHT22;11499;49.486;11.104;2022-09-30T06:36:24;5.90;99.90
22666;DHT22;11499;49.486;11.104;2022-09-30T06:38:53;5.60;99.90
22666;DHT22;11499;49.486;11.104;2022-09-30T06:41:19;5.50;99.90
22666;DHT22;11499;49.486;11.104;2022-09-30T06:43:45;5.50;99.90
22666;DHT22;11499;49.486;11.104;2022-09-30T06:48:53;5.60;99.90
22666;DHT22;11499;49.486;11.104;2022-09-30T06:51:18;5.90;99.90
22666;DHT22;11499;49.486;11.104;2022-09-30T06:53:44;6.10;99.90
22666;DHT22;11499;49.486;11.104;2022-09-30T06:56:10;6.30;99.90
22666;DHT22;11499;49.486;11.104;2022-09-30T06:58:36;6.40;99.90
22666;DHT22;11499;49.486;11.104;2022-09-30T07:01:04;6.60;99.90
22666;DHT22;11499;49.486;11.104;2022-09-30T07:03:32;6.80;99.90
22666;DHT22;11499;49.486;11.104;2022-09-30T07:06:00;6.90;99.90
22666;DHT22;11499;49.486;11.104;2022-09-30T07:08:28;7.00;99.90
22666;DHT22;11499;49.486;11.104;2022-09-30T07:11:03;6.80;99.90
22666;DHT22;11499;49.486;11.104;2022-09-30T07:14:47;6.90;99.90
22666;DHT22;11499;49.486;11.104;2022-09-30T07:17:12;7.20;99.90
22666;DHT22;11499;49.486;11.104;2022-09-30T07:19:38;7.30;99.90
22666;DHT22;11499;49.486;11.104;2022-09-30T07:22:03;7.10;99.90
22666;DHT22;11499;49.486;11.104;2022-09-30T07:24:47;6.90;99.90
22666;DHT22;11499;49.486;11.104;2022-09-30T07:27:13;7.20;99.90
22666;DHT22;11499;49.486;11.104;2022-09-30T07:29:41;7.50;99.90
22666;DHT22;11499;49.486;11.104;2022-09-30T07:32:08;7.50;99.90
22666;DHT22;11499;49.486;11.104;2022-09-30T07:34:34;8.10;99.90
22666;DHT22;11499;49.486;11.104;2022-09-30T07:37:00;8.70;99.90
22666;DHT22;11499;49.486;11.104;2022-09-30T07:42:17;9.10;99.90
22666;DHT22;11499;49.486;11.104;2022-09-30T07:44:47;9.50;99.90
22666;DHT22;11499;49.486;11.104;2022-09-30T07:47:16;9.70;99.90
22666;DHT22;11499;49.486;11.104;2022-09-30T07:49:42;10.00;99.90
22666;DHT22;11499;49.486;11.104;2022-09-30T07:52:10;10.10;99.90
22666;DHT22;11499;49.486;11.104;2022-09-30T07:54:37;10.30;99.90
22666;DHT22;11499;49.486;11.104;2022-09-30T07:57:03;10.70;99.90
22666;DHT22;11499;49.486;11.104;2022-09-30T07:59:31;10.80;99.90
22666;DHT22;11499;49.486;11.104;2022-09-30T08:01:56;10.90;99.90
22666;DHT22;11499;49.486;11.104;2022-09-30T08:04:24;10.80;99.90
22666;DHT22;11499;49.486;11.104;2022-09-30T08:09:59;10.90;99.90
22666;DHT22;11499;49.486;11.104;2022-09-30T08:12:24;11.10;99.90
22666;DHT22;11499;49.486;11.104;2022-09-30T08:14:50;11.30;99.90
22666;DHT22;11499;49.486;11.104;2022-09-30T08:17:15;11.40;99.90
22666;DHT22;11499;49.486;11.104;2022-09-30T08:19:41;11.60;99.90
22666;DHT22;11499;49.486;11.104;2022-09-30T08:22:09;11.70;99.90
22666;DHT22;11499;49.486;11.104;2022-09-30T08:24:34;11.70;99.90
22666;DHT22;11499;49.486;11.104;2022-09-30T08:27:00;12.20;99.90
22666;DHT22;11499;49.486;11.104;2022-09-30T08:29:26;12.30;99.90
22666;DHT22;11499;49.486;11.104;2022-09-30T08:31:51;12.10;99.90
22666;DHT22;11499;49.486;11.104;2022-09-30T08:36:58;11.20;99.90
22666;DHT22;11499;49.486;11.104;2022-09-30T08:39:23;10.60;99.90
22666;DHT22;11499;49.486;11.104;2022-09-30T08:44:45;10.60;99.90
22666;DHT22;11499;49.486;11.104;2022-09-30T08:47:39;11.10;99.90
22666;DHT22;11499;49.486;11.104;2022-09-30T08:52:53;12.70;99.90
22666;DHT22;11499;49.486;11.104;2022-09-30T08:55:23;12.50;99.90
22666;DHT22;11499;49.486;11.104;2022-09-30T08:57:51;12.90;99.90
22666;DHT22;11499;49.486;11.104;2022-09-30T09:00:18;13.20;99.90
22666;DHT22;11499;49.486;11.104;2022-09-30T09:05:02;13.80;99.90
22666;DHT22;11499;49.486;11.104;2022-09-30T09:07:43;12.90;99.90
22666;DHT22;11499;49.486;11.104;2022-09-30T09:13:05;13.00;99.90
22666;DHT22;11499;49.486;11.104;2022-09-30T09:18:28;13.40;99.90
22666;DHT22;11499;49.486;11.104;2022-09-30T09:21:04;13.50;99.90
22666;DHT22;11499;49.486;11.104;2022-09-30T09:23:33;13.80;99.90
22666;DHT22;11499;49.486;11.104;2022-09-30T09:25:59;13.80;99.90
22666;DHT22;11499;49.486;11.104;2022-09-30T09:28:45;14.00;99.90
22666;DHT22;11499;49.486;11.104;2022-09-30T09:31:16;14.20;99.90
22666;DHT22;11499;49.486;11.104;2022-09-30T09:35:15;14.30;99.90
22666;DHT22;11499;49.486;11.104;2022-09-30T09:54:24;12.70;99.90
22666;DHT22;11499;49.486;11.104;2022-09-30T09:56:52;12.30;99.90
22666;DHT22;11499;49.486;11.104;2022-09-30T10:01:59;11.90;99.90
22666;DHT22;11499;49.486;11.104;2022-09-30T10:04:28;12.30;99.90
22666;DHT22;11499;49.486;11.104;2022-09-30T10:07:00;12.50;99.90
22666;DHT22;11499;49.486;11.104;2022-09-30T10:09:38;12.80;99.90
22666;DHT22;11499;49.486;11.104;2022-09-30T10:14:30;12.90;99.90
22666;DHT22;11499;49.486;11.104;2022-09-30T10:17:01;12.70;99.90
22666;DHT22;11499;49.486;11.104;2022-09-30T10:19:30;12.70;99.90
22666;DHT22;11499;49.486;11.104;2022-09-30T10:22:24;12.80;99.90
22666;DHT22;11499;49.486;11.104;2022-09-30T10:27:31;12.40;99.90
22666;DHT22;11499;49.486;11.104;2022-09-30T10:29:59;12.40;99.90
22666;DHT22;11499;49.486;11.104;2022-09-30T10:32:25;12.70;99.90
22666;DHT22;11499;49.486;11.104;2022-09-30T10:35:00;12.70;99.90
22666;DHT22;11499;49.486;11.104;2022-09-30T10:37:27;12.90;99.90
22666;DHT22;11499;49.486;11.104;2022-09-30T10:40:02;13.00;99.90
22666;DHT22;11499;49.486;11.104;2022-09-30T10:42:32;13.20;99.90
22666;DHT22;11499;49.486;11.104;2022-09-30T10:45:17;13.70;99.90
22666;DHT22;11499;49.486;11.104;2022-09-30T10:47:47;14.20;99.90
22666;DHT22;11499;49.486;11.104;2022-09-30T10:53:03;14.60;99.90
22666;DHT22;11499;49.486;11.104;2022-09-30T10:58:22;14.40;99.90
22666;DHT22;11499;49.486;11.104;2022-09-30T11:00:51;15.20;99.90
22666;DHT22;11499;49.486;11.104;2022-09-30T11:03:24;16.00;99.90
22666;DHT22;11499;49.486;11.104;2022-09-30T11:05:52;16.50;99.00
22666;DHT22;11499;49.486;11.104;2022-09-30T11:09:00;16.10;98.50
22666;DHT22;11499;49.486;11.104;2022-09-30T11:11:46;15.70;99.80
22666;DHT22;11499;49.486;11.104;2022-09-30T11:14:20;16.10;99.00
22666;DHT22;11499;49.486;11.104;2022-09-30T11:20:14;16.60;98.30
22666;DHT22;11499;49.486;11.104;2022-09-30T11:22:44;16.80;96.80
22666;DHT22;11499;49.486;11.104;2022-09-30T11:25:18;16.90;96.70
22666;DHT22;11499;49.486;11.104;2022-09-30T11:28:15;16.70;95.20
22666;DHT22;11499;49.486;11.104;2022-09-30T11:39:06;16.80;94.20
22666;DHT22;11499;49.486;11.104;2022-09-30T11:41:48;17.10;94.20
22666;DHT22;11499;49.486;11.104;2022-09-30T11:50:02;16.50;91.40
22666;DHT22;11499;49.486;11.104;2022-09-30T11:58:33;16.70;91.00
22666;DHT22;11499;49.486;11.104;2022-09-30T12:01:29;16.30;92.50
22666;DHT22;11499;49.486;11.104;2022-09-30T12:06:45;17.30;90.90
22666;DHT22;11499;49.486;11.104;2022-09-30T12:09:21;17.60;90.50
22666;DHT22;11499;49.486;11.104;2022-09-30T12:14:24;18.00;90.10
22666;DHT22;11499;49.486;11.104;2022-09-30T12:16:50;17.80;88.40
22666;DHT22;11499;49.486;11.104;2022-09-30T12:21:52;18.30;86.90
22666;DHT22;11499;49.486;11.104;2022-09-30T12:24:46;17.80;89.40
22666;DHT22;11499;49.486;11.104;2022-09-30T12:27:31;17.60;89.90
22666;DHT22;11499;49.486;11.104;2022-09-30T12:30:09;18.00;86.50
22666;DHT22;11499;49.486;11.104;2022-09-30T12:33:13;18.40;84.90
22666;DHT22;11499;49.486;11.104;2022-09-30T12:36:13;17.20;85.60
22666;DHT22;11499;49.486;11.104;2022-09-30T12:48:52;16.30;90.90
22666;DHT22;11499;49.486;11.104;2022-09-30T12:51:26;16.10;88.30
22666;DHT22;11499;49.486;11.104;2022-09-30T12:54:04;16.70;87.80
22666;DHT22;11499;49.486;11.104;2022-09-30T12:56:31;16.30;87.80
22666;DHT22;11499;49.486;11.104;2022-09-30T12:58:59;15.70;90.00
22666;DHT22;11499;49.486;11.104;2022-09-30T13:04:46;16.10;89.60
22666;DHT22;11499;49.486;11.104;2022-09-30T13:07:20;16.40;88.50
22666;DHT22;11499;49.486;11.104;2022-09-30T13:10:05;16.20;87.80
22666;DHT22;11499;49.486;11.104;2022-09-30T13:13:11;16.60;87.50
22666;DHT22;11499;49.486;11.104;2022-09-30T13:23:42;16.70;86.50
22666;DHT22;11499;49.486;11.104;2022-09-30T13:34:12;16.20;87.50
22666;DHT22;11499;49.486;11.104;2022-09-30T13:36:40;16.30;87.10
22666;DHT22;11499;49.486;11.104;2022-09-30T13:39:59;16.60;86.70
22666;DHT22;11499;49.486;11.104;2022-09-30T13:42:28;16.50;86.50
22666;DHT22;11499;49.486;11.104;2022-09-30T13:45:18;16.50;86.50
22666;DHT22;11499;49.486;11.104;2022-09-30T13:48:00;16.10;86.50
22666;DHT22;11499;49.486;11.104;2022-09-30T13:50:30;16.20;86.70
22666;DHT22;11499;49.486;11.104;2022-09-30T13:53:01;16.30;85.80
22666;DHT22;11499;49.486;11.104;2022-09-30T14:06:43;16.00;84.20
22666;DHT22;11499;49.486;11.104;2022-09-30T14:23:21;15.80;83.50
22666;DHT22;11499;49.486;11.104;2022-09-30T14:28:38;15.60;83.10
22666;DHT22;11499;49.486;11.104;2022-09-30T14:31:12;15.50;84.30
22666;DHT22;11499;49.486;11.104;2022-09-30T14:33:40;15.20;85.40
22666;DHT22;11499;49.486;11.104;2022-09-30T14:36:12;15.30;86.40
22666;DHT22;11499;49.486;11.104;2022-09-30T14:38:43;15.20;87.10
22666;DHT22;11499;49.486;11.104;2022-09-30T14:41:16;15.20;86.40
22666;DHT22;11499;49.486;11.104;2022-09-30T14:43:43;15.10;85.10
22666;DHT22;11499;49.486;11.104;2022-09-30T14:49:25;15.20;83.80
22666;DHT22;11499;49.486;11.104;2022-09-30T14:51:58;15.10;84.20
22666;DHT22;11499;49.486;11.104;2022-09-30T14:54:26;15.00;84.70
22666;DHT22;11499;49.486;11.104;2022-09-30T14:56:54;14.90;84.60
22666;DHT22;11499;49.486;11.104;2022-09-30T14:59:31;14.80;86.10
22666;DHT22;11499;49.486;11.104;2022-09-30T15:02:18;14.70;85.70
22666;DHT22;11499;49.486;11.104;2022-09-30T15:04:51;14.70;84.80
22666;DHT22;11499;49.486;11.104;2022-09-30T15:07:17;14.70;86.20
22666;DHT22;11499;49.486;11.104;2022-09-30T15:09:45;14.80;86.60
22666;DHT22;11499;49.486;11.104;2022-09-30T15:12:20;14.70;86.50
22666;DHT22;11499;49.486;11.104;2022-09-30T15:16:56;14.60;86.50
22666;DHT22;11499;49.486;11.104;2022-09-30T15:19:23;14.60;86.10
22666;DHT22;11499;49.486;11.104;2022-09-30T15:21:51;14.60;85.50
22666;DHT22;11499;49.486;11.104;2022-09-30T15:24:18;14.50;86.20
22666;DHT22;11499;49.486;11.104;2022-09-30T15:26:45;14.50;86.30
22666;DHT22;11499;49.486;11.104;2022-09-30T15:29:15;14.50;86.00
22666;DHT22;11499;49.486;11.104;2022-09-30T15:31:47;14.40;87.20
22666;DHT22;11499;49.486;11.104;2022-09-30T15:34:19;14.50;87.40
22666;DHT22;11499;49.486;11.104;2022-09-30T15:36:47;14.40;87.50
22666;DHT22;11499;49.486;11.104;2022-09-30T15:39:25;14.40;87.70
22666;DHT22;11499;49.486;11.104;2022-09-30T15:44:36;14.40;88.10
22666;DHT22;11499;49.486;11.104;2022-09-30T15:47:05;14.40;87.10
22666;DHT22;11499;49.486;11.104;2022-09-30T15:52:27;14.40;88.50
22666;DHT22;11499;49.486;11.104;2022-09-30T15:54:53;14.40;86.90
22666;DHT22;11499;49.486;11.104;2022-09-30T15:57:48;14.30;87.80
22666;DHT22;11499;49.486;11.104;2022-09-30T16:05:32;14.00;88.40
22666;DHT22;11499;49.486;11.104;2022-09-30T16:07:58;14.10;88.60
22666;DHT22;11499;49.486;11.104;2022-09-30T16:12:15;14.00;88.20
22666;DHT22;11499;49.486;11.104;2022-09-30T16:14:55;14.00;89.90
22666;DHT22;11499;49.486;11.104;2022-09-30T16:17:34;13.90;90.50
22666;DHT22;11499;49.486;11.104;2022-09-30T16:20:20;13.80;90.40
22666;DHT22;11499;49.486;11.104;2022-09-30T16:30:24;13.70;90.80
22666;DHT22;11499;49.486;11.104;2022-09-30T16:32:52;13.50;91.30
22666;DHT22;11499;49.486;11.104;2022-09-30T16:35:21;13.40;91.50
22666;DHT22;11499;49.486;11.104;2022-09-30T16:37:48;13.30;91.50
22666;DHT22;11499;49.486;11.104;2022-09-30T16:42:03;13.20;92.20
22666;DHT22;11499;49.486;11.104;2022-09-30T16:44:30;13.00;92.00
22666;DHT22;11499;49.486;11.104;2022-09-30T16:46:59;12.90;92.60
22666;DHT22;11499;49.486;11.104;2022-09-30T16:49:24;12.80;93.20
22666;DHT22;11499;49.486;11.104;2022-09-30T16:51:50;12.50;95.10
22666;DHT22;11499;49.486;11.104;2022-09-30T16:54:16;12.30;97.30
22666;DHT22;11499;49.486;11.104;2022-09-30T16:56:41;12.10;98.40
22666;DHT22;11499;49.486;11.104;2022-09-30T16:59:15;11.90;98.80
22666;DHT22;11499;49.486;11.104;2022-09-30T17:01:41;11.70;99.90
22666;DHT22;11499;49.486;11.104;2022-09-30T17:06:57;11.50;99.90
22666;DHT22;11499;49.486;11.104;2022-09-30T17:09:23;11.20;99.90
22666;DHT22;11499;49.486;11.104;2022-09-30T17:11:49;10.90;99.90
22666;DHT22;11499;49.486;11.104;2022-09-30T17:14:17;10.80;99.90
22666;DHT22;11499;49.486;11.104;2022-09-30T17:16:43;10.60;99.90
22666;DHT22;11499;49.486;11.104;2022-09-30T17:19:10;10.40;99.90
22666;DHT22;11499;49.486;11.104;2022-09-30T17:21:36;10.30;99.90
22666;DHT22;11499;49.486;11.104;2022-09-30T17:24:01;10.20;99.90
22666;DHT22;11499;49.486;11.104;2022-09-30T17:26:27;10.10;99.90
22666;DHT22;11499;49.486;11.104;2022-09-30T17:28:52;9.90;99.90
22666;DHT22;11499;49.486;11.104;2022-09-30T17:33:55;9.90;99.90
22666;DHT22;11499;49.486;11.104;2022-09-30T17:36:21;9.70;99.90
22666;DHT22;11499;49.486;11.104;2022-09-30T17:38:52;9.60;99.90
22666;DHT22;11499;49.486;11.104;2022-09-30T17:41:17;9.60;99.90
22666;DHT22;11499;49.486;11.104;2022-09-30T17:44:01;9.50;99.90
22666;DHT22;11499;49.486;11.104;2022-09-30T17:46:27;9.40;99.90
22666;DHT22;11499;49.486;11.104;2022-09-30T17:49:03;9.30;99.90
22666;DHT22;11499;49.486;11.104;2022-09-30T17:51:29;9.20;99.90
22666;DHT22;11499;49.486;11.104;2022-09-30T17:53:54;9.10;99.90
22666;DHT22;11499;49.486;11.104;2022-09-30T17:56:21;9.00;99.90
22666;DHT22;11499;49.486;11.104;2022-09-30T18:01:56;8.80;99.90
22666;DHT22;11499;49.486;11.104;2022-09-30T18:04:22;8.70;99.90
22666;DHT22;11499;49.486;11.104;2022-09-30T18:06:53;8.60;99.90
22666;DHT22;11499;49.486;11.104;2022-09-30T18:09:18;8.60;99.90
22666;DHT22;11499;49.486;11.104;2022-09-30T18:11:44;8.50;99.90
22666;DHT22;11499;49.486;11.104;2022-09-30T18:14:10;8.40;99.90
22666;DHT22;11499;49.486;11.104;2022-09-30T18:16:36;8.40;99.90
22666;DHT22;11499;49.486;11.104;2022-09-30T18:19:06;8.40;99.90
22666;DHT22;11499;49.486;11.104;2022-09-30T18:21:33;8.40;99.90
22666;DHT22;11499;49.486;11.104;2022-09-30T18:27:03;8.40;99.90
22666;DHT22;11499;49.486;11.104;2022-09-30T18:29:28;8.30;99.90
22666;DHT22;11499;49.486;11.104;2022-09-30T18:31:53;8.30;99.90
22666;DHT22;11499;49.486;11.104;2022-09-30T18:34:20;8.20;99.90
22666;DHT22;11499;49.486;11.104;2022-09-30T18:36:47;8.20;99.90
22666;DHT22;11499;49.486;11.104;2022-09-30T18:39:14;8.10;99.90
22666;DHT22;11499;49.486;11.104;2022-09-30T18:41:39;8.10;99.90
22666;DHT22;11499;49.486;11.104;2022-09-30T18:44:07;8.00;99.90
22666;DHT22;11499;49.486;11.104;2022-09-30T18:46:33;7.90;99.90
22666;DHT22;11499;49.486;11.104;2022-09-30T18:49:00;7.90;99.90
22666;DHT22;11499;49.486;11.104;2022-09-30T18:53:59;7.80;99.90
22666;DHT22;11499;49.486;11.104;2022-09-30T18:56:27;7.70;99.90
22666;DHT22;11499;49.486;11.104;2022-09-30T18:59:03;7.60;99.90
22666;DHT22;11499;49.486;11.104;2022-09-30T19:01:29;7.60;99.90
22666;DHT22;11499;49.486;11.104;2022-09-30T19:03:55;7.60;99.90
22666;DHT22;11499;49.486;11.104;2022-09-30T19:06:20;7.60;99.90
22666;DHT22;11499;49.486;11.104;2022-09-30T19:08:46;7.60;99.90
22666;DHT22;11499;49.486;11.104;2022-09-30T19:11:12;7.60;99.90
22666;DHT22;11499;49.486;11.104;2022-09-30T19:13:43;7.50;99.90
22666;DHT22;11499;49.486;11.104;2022-09-30T19:16:10;7.50;99.90
22666;DHT22;11499;49.486;11.104;2022-09-30T19:21:24;7.40;99.90
22666;DHT22;11499;49.486;11.104;2022-09-30T19:23:50;7.30;99.90
22666;DHT22;11499;49.486;11.104;2022-09-30T19:26:15;7.30;99.90
22666;DHT22;11499;49.486;11.104;2022-09-30T19:28:41;7.40;99.90
22666;DHT22;11499;49.486;11.104;2022-09-30T19:31:11;7.30;99.90
22666;DHT22;11499;49.486;11.104;2022-09-30T19:33:38;7.30;99.90
22666;DHT22;11499;49.486;11.104;2022-09-30T19:36:05;7.20;99.90
22666;DHT22;11499;49.486;11.104;2022-09-30T19:38:33;7.10;99.90
22666;DHT22;11499;49.486;11.104;2022-09-30T19:40:59;7.10;99.90
22666;DHT22;11499;49.486;11.104;2022-09-30T19:46:31;7.10;99.90
22666;DHT22;11499;49.486;11.104;2022-09-30T19:48:57;7.00;99.90
22666;DHT22;11499;49.486;11.104;2022-09-30T19:51:22;6.90;99.90
22666;DHT22;11499;49.486;11.104;2022-09-30T19:53:48;6.80;99.90
22666;DHT22;11499;49.486;11.104;2022-09-30T19:56:16;6.80;99.90
22666;DHT22;11499;49.486;11.104;2022-09-30T19:58:43;6.90;99.90
22666;DHT22;11499;49.486;11.104;2022-09-30T20:01:11;6.80;99.90
22666;DHT22;11499;49.486;11.104;2022-09-30T20:03:37;6.80;99.90
22666;DHT22;11499;49.486;11.104;2022-09-30T20:06:05;6.80;99.90
22666;DHT22;11499;49.486;11.104;2022-09-30T20:08:34;6.90;99.90